sensor_id;sensor_type;location;lat;lon;timestamp;pressure;altitude;pressure_sealevel;temperature;humidity
48680;BME280;34475;51.658;5.634;2023-01-29T00:00:00;102830;;;0.1;100.0
48680;BME280;34475;51.658;5.634;2023-01-29T00:01:02;102830;;;0.1;100.0
48680;BME280;34475;51.658;5.634;2023-01-29T00:02:00;102830;;;0.1;100.0
48680;BME280;34475;51.658;5.634;2023-01-29T00:03:00;102830;;;0.0;100.0
48680;BME280;34475;51.658;5.634;2023-01-29T00:04:00;102830;;;0.0;100.0
48680;BME280;34475;51.658;5.634;2023-01-29T00:05:00;102820;;;-0.0;100.0
48680;BME280;34475;51.658;5.634;2023-01-29T00:06:03;102820;;;-0.0;100.0
48680;BME280;34475;51.658;5.634;2023-01-29T00:07:00;102820;;;-0.0;100.0
48680;BME280;34475;51.658;5.634;2023-01-29T00:08:00;102820;;;-0.0;100.0
48680;BME280;34475;51.658;5.634;2023-01-29T00:09:00;102820;;;-0.1;100.0
48680;BME280;34475;51.658;5.634;2023-01-29T00:10:00;102820;;;-0.1;100.0
48680;BME280;34475;51.658;5.634;2023-01-29T00:11:00;102810;;;-0.2;100.0
48680;BME280;34475;51.658;5.634;2023-01-29T00:12:00;102810;;;-0.2;100.0
48680;BME280;34475;51.658;5.634;2023-01-29T00:13:00;102820;;;-0.2;100.0
48680;BME280;34475;51.658;5.634;2023-01-29T00:14:00;102820;;;-0.2;100.0
48680;BME280;34475;51.658;5.634;2023-01-29T00:15:00;102820;;;-0.2;100.0
48680;BME280;34475;51.658;5.634;2023-01-29T00:16:00;102820;;;-0.2;100.0
48680;BME280;34475;51.658;5.634;2023-01-29T00:17:00;102820;;;-0.3;100.0
48680;BME280;34475;51.658;5.634;2023-01-29T00:18:00;102820;;;-0.3;100.0
48680;BME280;34475;51.658;5.634;2023-01-29T00:19:00;102810;;;-0.3;100.0
48680;BME280;34475;51.658;5.634;2023-01-29T00:20:00;102810;;;-0.3;100.0
48680;BME280;34475;51.658;5.634;2023-01-29T00:21:00;102810;;;-0.4;100.0
48680;BME280;34475;51.658;5.634;2023-01-29T00:22:00;102810;;;-0.4;100.0
48680;BME280;34475;51.658;5.634;2023-01-29T00:23:00;102810;;;-0.4;100.0
48680;BME280;34475;51.658;5.634;2023-01-29T00:24:00;102810;;;-0.4;100.0
48680;BME280;34475;51.658;5.634;2023-01-29T00:25:00;102810;;;-0.4;100.0
48680;BME280;34475;51.658;5.634;2023-01-29T00:26:00;102810;;;-0.4;100.0
48680;BME280;34475;51.658;5.634;2023-01-29T00:27:00;102800;;;-0.4;100.0
48680;BME280;34475;51.658;5.634;2023-01-29T00:28:00;102800;;;-0.4;100.0
48680;BME280;34475;51.658;5.634;2023-01-29T00:29:00;102800;;;-0.4;100.0
48680;BME280;34475;51.658;5.634;2023-01-29T00:30:00;102800;;;-0.4;100.0
48680;BME280;34475;51.658;5.634;2023-01-29T00:31:18;102800;;;-0.4;100.0
48680;BME280;34475;51.658;5.634;2023-01-29T00:32:00;102800;;;-0.4;100.0
48680;BME280;34475;51.658;5.634;2023-01-29T00:33:00;102800;;;-0.5;100.0
48680;BME280;34475;51.658;5.634;2023-01-29T00:34:00;102800;;;-0.5;100.0
48680;BME280;34475;51.658;5.634;2023-01-29T00:35:00;102800;;;-0.5;100.0
48680;BME280;34475;51.658;5.634;2023-01-29T00:36:02;102800;;;-0.5;100.0
48680;BME280;34475;51.658;5.634;2023-01-29T00:37:00;102800;;;-0.5;100.0
48680;BME280;34475;51.658;5.634;2023-01-29T00:38:00;102800;;;-0.5;100.0
48680;BME280;34475;51.658;5.634;2023-01-29T00:39:00;102800;;;-0.6;100.0
48680;BME280;34475;51.658;5.634;2023-01-29T00:40:00;102800;;;-0.6;100.0
48680;BME280;34475;51.658;5.634;2023-01-29T00:42:00;102790;;;-0.6;100.0
48680;BME280;34475;51.658;5.634;2023-01-29T00:43:00;102790;;;-0.6;100.0
48680;BME280;34475;51.658;5.634;2023-01-29T00:44:00;102790;;;-0.6;100.0
48680;BME280;34475;51.658;5.634;2023-01-29T00:45:00;102790;;;-0.6;100.0
48680;BME280;34475;51.658;5.634;2023-01-29T00:46:00;102790;;;-0.6;100.0
48680;BME280;34475;51.658;5.634;2023-01-29T00:47:00;102780;;;-0.6;100.0
48680;BME280;34475;51.658;5.634;2023-01-29T00:48:00;102780;;;-0.6;100.0
48680;BME280;34475;51.658;5.634;2023-01-29T00:49:00;102770;;;-0.6;100.0
48680;BME280;34475;51.658;5.634;2023-01-29T00:50:00;102770;;;-0.6;100.0
48680;BME280;34475;51.658;5.634;2023-01-29T00:51:00;102770;;;-0.6;100.0
48680;BME280;34475;51.658;5.634;2023-01-29T00:52:00;102770;;;-0.6;100.0
48680;BME280;34475;51.658;5.634;2023-01-29T00:53:00;102770;;;-0.6;100.0
48680;BME280;34475;51.658;5.634;2023-01-29T00:54:00;102770;;;-0.6;100.0
48680;BME280;34475;51.658;5.634;2023-01-29T00:55:00;102760;;;-0.6;100.0
48680;BME280;34475;51.658;5.634;2023-01-29T00:56:00;102760;;;-0.6;100.0
48680;BME280;34475;51.658;5.634;2023-01-29T00:57:00;102760;;;-0.6;100.0
48680;BME280;34475;51.658;5.634;2023-01-29T00:58:00;102760;;;-0.6;100.0
48680;BME280;34475;51.658;5.634;2023-01-29T00:59:00;102760;;;-0.6;100.0
48680;BME280;34475;51.658;5.634;2023-01-29T01:00:00;102760;;;-0.6;100.0
48680;BME280;34475;51.658;5.634;2023-01-29T01:01:00;102760;;;-0.7;100.0
48680;BME280;34475;51.658;5.634;2023-01-29T01:02:00;102760;;;-0.7;100.0
48680;BME280;34475;51.658;5.634;2023-01-29T01:03:00;102760;;;-0.7;100.0
48680;BME280;34475;51.658;5.634;2023-01-29T01:04:00;102760;;;-0.7;100.0
48680;BME280;34475;51.658;5.634;2023-01-29T01:05:00;102760;;;-0.7;100.0
48680;BME280;34475;51.658;5.634;2023-01-29T01:06:02;102760;;;-0.7;100.0
48680;BME280;34475;51.658;5.634;2023-01-29T01:07:00;102760;;;-0.8;100.0
48680;BME280;34475;51.658;5.634;2023-01-29T01:08:00;102760;;;-0.8;100.0
48680;BME280;34475;51.658;5.634;2023-01-29T01:09:00;102770;;;-0.7;100.0
48680;BME280;34475;51.658;5.634;2023-01-29T01:10:00;102770;;;-0.7;100.0
48680;BME280;34475;51.658;5.634;2023-01-29T01:11:01;102770;;;-0.8;100.0
48680;BME280;34475;51.658;5.634;2023-01-29T01:12:00;102770;;;-0.8;100.0
48680;BME280;34475;51.658;5.634;2023-01-29T01:13:01;102770;;;-0.9;100.0
48680;BME280;34475;51.658;5.634;2023-01-29T01:14:00;102770;;;-0.9;100.0
48680;BME280;34475;51.658;5.634;2023-01-29T01:15:00;102770;;;-0.9;100.0
48680;BME280;34475;51.658;5.634;2023-01-29T01:16:00;102770;;;-0.9;100.0
48680;BME280;34475;51.658;5.634;2023-01-29T01:17:00;102770;;;-0.9;100.0
48680;BME280;34475;51.658;5.634;2023-01-29T01:18:01;102770;;;-0.9;100.0
48680;BME280;34475;51.658;5.634;2023-01-29T01:19:00;102770;;;-0.9;100.0
48680;BME280;34475;51.658;5.634;2023-01-29T01:20:00;102770;;;-0.9;100.0
48680;BME280;34475;51.658;5.634;2023-01-29T01:21:00;102760;;;-0.8;100.0
48680;BME280;34475;51.658;5.634;2023-01-29T01:22:00;102760;;;-0.8;100.0
48680;BME280;34475;51.658;5.634;2023-01-29T01:23:00;102760;;;-0.8;100.0
48680;BME280;34475;51.658;5.634;2023-01-29T01:24:00;102760;;;-0.8;100.0
48680;BME280;34475;51.658;5.634;2023-01-29T01:25:00;102770;;;-0.9;100.0
48680;BME280;34475;51.658;5.634;2023-01-29T01:26:00;102770;;;-0.9;100.0
48680;BME280;34475;51.658;5.634;2023-01-29T01:27:00;102770;;;-1.0;100.0
48680;BME280;34475;51.658;5.634;2023-01-29T01:28:00;102770;;;-1.0;100.0
48680;BME280;34475;51.658;5.634;2023-01-29T01:29:00;102780;;;-1.0;100.0
48680;BME280;34475;51.658;5.634;2023-01-29T01:30:00;102780;;;-1.0;100.0
48680;BME280;34475;51.658;5.634;2023-01-29T01:31:06;102770;;;-1.0;100.0
48680;BME280;34475;51.658;5.634;2023-01-29T01:32:00;102770;;;-1.0;100.0
48680;BME280;34475;51.658;5.634;2023-01-29T01:33:00;102770;;;-0.9;100.0
48680;BME280;34475;51.658;5.634;2023-01-29T01:34:00;102770;;;-0.9;100.0
48680;BME280;34475;51.658;5.634;2023-01-29T01:35:00;102770;;;-0.9;100.0
48680;BME280;34475;51.658;5.634;2023-01-29T01:36:00;102770;;;-0.9;100.0
48680;BME280;34475;51.658;5.634;2023-01-29T01:37:00;102780;;;-1.0;100.0
48680;BME280;34475;51.658;5.634;2023-01-29T01:38:00;102780;;;-1.0;100.0
48680;BME280;34475;51.658;5.634;2023-01-29T01:39:00;102770;;;-1.0;100.0
48680;BME280;34475;51.658;5.634;2023-01-29T01:40:00;102770;;;-1.0;100.0
48680;BME280;34475;51.658;5.634;2023-01-29T01:41:00;102770;;;-0.9;100.0
48680;BME280;34475;51.658;5.634;2023-01-29T01:42:01;102770;;;-0.9;100.0
48680;BME280;34475;51.658;5.634;2023-01-29T01:43:00;102770;;;-0.9;100.0
48680;BME280;34475;51.658;5.634;2023-01-29T01:44:01;102770;;;-0.9;100.0
48680;BME280;34475;51.658;5.634;2023-01-29T01:45:00;102760;;;-1.0;100.0
48680;BME280;34475;51.658;5.634;2023-01-29T01:46:00;102760;;;-1.0;100.0
48680;BME280;34475;51.658;5.634;2023-01-29T01:47:00;102770;;;-0.9;100.0
48680;BME280;34475;51.658;5.634;2023-01-29T01:49:04;102780;;;-1.0;100.0
48680;BME280;34475;51.658;5.634;2023-01-29T01:50:02;102780;;;-1.0;100.0
48680;BME280;34475;51.658;5.634;2023-01-29T01:51:01;102770;;;-1.0;100.0
48680;BME280;34475;51.658;5.634;2023-01-29T01:52:00;102770;;;-1.0;100.0
48680;BME280;34475;51.658;5.634;2023-01-29T01:53:02;102770;;;-1.0;100.0
48680;BME280;34475;51.658;5.634;2023-01-29T01:54:02;102770;;;-1.0;100.0
48680;BME280;34475;51.658;5.634;2023-01-29T01:55:00;102770;;;-1.0;100.0
48680;BME280;34475;51.658;5.634;2023-01-29T01:56:01;102770;;;-1.0;100.0
48680;BME280;34475;51.658;5.634;2023-01-29T01:57:02;102770;;;-1.0;100.0
48680;BME280;34475;51.658;5.634;2023-01-29T01:58:05;102770;;;-1.0;100.0
48680;BME280;34475;51.658;5.634;2023-01-29T01:59:00;102770;;;-1.0;100.0
48680;BME280;34475;51.658;5.634;2023-01-29T02:00:02;102770;;;-1.0;100.0
48680;BME280;34475;51.658;5.634;2023-01-29T02:01:00;102770;;;-1.0;100.0
48680;BME280;34475;51.658;5.634;2023-01-29T02:02:00;102770;;;-1.0;100.0
48680;BME280;34475;51.658;5.634;2023-01-29T02:03:00;102770;;;-0.9;100.0
48680;BME280;34475;51.658;5.634;2023-01-29T02:04:03;102770;;;-0.9;100.0
48680;BME280;34475;51.658;5.634;2023-01-29T02:05:00;102770;;;-0.9;100.0
48680;BME280;34475;51.658;5.634;2023-01-29T02:06:00;102770;;;-0.9;100.0
48680;BME280;34475;51.658;5.634;2023-01-29T02:07:00;102780;;;-1.0;100.0
48680;BME280;34475;51.658;5.634;2023-01-29T02:08:00;102780;;;-1.0;100.0
48680;BME280;34475;51.658;5.634;2023-01-29T02:09:02;102780;;;-0.9;100.0
48680;BME280;34475;51.658;5.634;2023-01-29T02:10:08;102780;;;-0.9;100.0
48680;BME280;34475;51.658;5.634;2023-01-29T02:11:00;102790;;;-0.9;100.0
48680;BME280;34475;51.658;5.634;2023-01-29T02:12:02;102790;;;-0.9;100.0
48680;BME280;34475;51.658;5.634;2023-01-29T02:13:00;102790;;;-0.9;100.0
48680;BME280;34475;51.658;5.634;2023-01-29T02:14:00;102790;;;-0.9;100.0
48680;BME280;34475;51.658;5.634;2023-01-29T02:15:00;102780;;;-0.8;100.0
48680;BME280;34475;51.658;5.634;2023-01-29T02:16:00;102780;;;-0.8;100.0
48680;BME280;34475;51.658;5.634;2023-01-29T02:17:00;102790;;;-0.8;100.0
48680;BME280;34475;51.658;5.634;2023-01-29T02:18:00;102790;;;-0.8;100.0
48680;BME280;34475;51.658;5.634;2023-01-29T02:19:00;102790;;;-0.8;100.0
48680;BME280;34475;51.658;5.634;2023-01-29T02:20:17;102790;;;-0.8;100.0
48680;BME280;34475;51.658;5.634;2023-01-29T02:23:05;102790;;;-0.7;100.0
48680;BME280;34475;51.658;5.634;2023-01-29T02:24:05;102790;;;-0.7;100.0
48680;BME280;34475;51.658;5.634;2023-01-29T02:25:01;102790;;;-0.6;100.0
48680;BME280;34475;51.658;5.634;2023-01-29T02:27:18;102790;;;-0.8;100.0
48680;BME280;34475;51.658;5.634;2023-01-29T02:30:02;102800;;;-0.7;100.0
48680;BME280;34475;51.658;5.634;2023-01-29T02:31:20;102790;;;-0.6;100.0
48680;BME280;34475;51.658;5.634;2023-01-29T02:32:06;102790;;;-0.6;100.0
48680;BME280;34475;51.658;5.634;2023-01-29T02:33:04;102790;;;-0.6;100.0
48680;BME280;34475;51.658;5.634;2023-01-29T02:36:07;102800;;;-0.6;100.0
48680;BME280;34475;51.658;5.634;2023-01-29T02:37:02;102790;;;-0.5;100.0
48680;BME280;34475;51.658;5.634;2023-01-29T02:39:07;102780;;;-0.5;100.0
48680;BME280;34475;51.658;5.634;2023-01-29T02:40:09;102780;;;-0.5;100.0
48680;BME280;34475;51.658;5.634;2023-01-29T02:41:01;102780;;;-0.4;100.0
48680;BME280;34475;51.658;5.634;2023-01-29T02:42:01;102780;;;-0.4;100.0
48680;BME280;34475;51.658;5.634;2023-01-29T02:44:05;102780;;;-0.5;100.0
48680;BME280;34475;51.658;5.634;2023-01-29T02:47:01;102770;;;-0.4;100.0
48680;BME280;34475;51.658;5.634;2023-01-29T02:48:00;102770;;;-0.4;100.0
48680;BME280;34475;51.658;5.634;2023-01-29T02:50:05;102780;;;-0.4;100.0
48680;BME280;34475;51.658;5.634;2023-01-29T02:51:02;102780;;;-0.5;100.0
48680;BME280;34475;51.658;5.634;2023-01-29T02:53:03;102780;;;-0.4;100.0
48680;BME280;34475;51.658;5.634;2023-01-29T02:54:03;102780;;;-0.4;100.0
48680;BME280;34475;51.658;5.634;2023-01-29T02:55:09;102780;;;-0.4;100.0
48680;BME280;34475;51.658;5.634;2023-01-29T02:56:02;102780;;;-0.4;100.0
48680;BME280;34475;51.658;5.634;2023-01-29T02:57:03;102780;;;-0.3;100.0
48680;BME280;34475;51.658;5.634;2023-01-29T02:58:03;102780;;;-0.3;100.0
48680;BME280;34475;51.658;5.634;2023-01-29T02:59:03;102770;;;-0.3;100.0
48680;BME280;34475;51.658;5.634;2023-01-29T03:00:03;102770;;;-0.3;100.0
48680;BME280;34475;51.658;5.634;2023-01-29T03:01:03;102770;;;-0.2;100.0
48680;BME280;34475;51.658;5.634;2023-01-29T03:02:02;102770;;;-0.2;100.0
48680;BME280;34475;51.658;5.634;2023-01-29T03:03:32;102780;;;-0.3;100.0
48680;BME280;34475;51.658;5.634;2023-01-29T03:04:02;102780;;;-0.3;100.0
48680;BME280;34475;51.658;5.634;2023-01-29T03:05:00;102780;;;-0.2;100.0
48680;BME280;34475;51.658;5.634;2023-01-29T03:07:02;102780;;;-0.2;100.0
48680;BME280;34475;51.658;5.634;2023-01-29T03:08:03;102780;;;-0.2;100.0
48680;BME280;34475;51.658;5.634;2023-01-29T03:09:01;102770;;;-0.3;100.0
48680;BME280;34475;51.658;5.634;2023-01-29T03:10:00;102770;;;-0.3;100.0
48680;BME280;34475;51.658;5.634;2023-01-29T03:11:00;102770;;;-0.2;100.0
48680;BME280;34475;51.658;5.634;2023-01-29T03:12:02;102770;;;-0.2;100.0
48680;BME280;34475;51.658;5.634;2023-01-29T03:13:01;102780;;;-0.1;100.0
48680;BME280;34475;51.658;5.634;2023-01-29T03:14:04;102780;;;-0.1;100.0
48680;BME280;34475;51.658;5.634;2023-01-29T03:15:02;102780;;;-0.1;100.0
48680;BME280;34475;51.658;5.634;2023-01-29T03:16:02;102780;;;-0.1;100.0
48680;BME280;34475;51.658;5.634;2023-01-29T03:17:00;102770;;;-0.1;100.0
48680;BME280;34475;51.658;5.634;2023-01-29T03:18:03;102770;;;-0.1;100.0
48680;BME280;34475;51.658;5.634;2023-01-29T03:19:04;102780;;;-0.1;100.0
48680;BME280;34475;51.658;5.634;2023-01-29T03:20:00;102780;;;-0.1;100.0
48680;BME280;34475;51.658;5.634;2023-01-29T03:21:02;102780;;;-0.1;100.0
48680;BME280;34475;51.658;5.634;2023-01-29T03:22:00;102780;;;-0.1;100.0
48680;BME280;34475;51.658;5.634;2023-01-29T03:23:01;102780;;;-0.1;100.0
48680;BME280;34475;51.658;5.634;2023-01-29T03:24:00;102780;;;-0.1;100.0
48680;BME280;34475;51.658;5.634;2023-01-29T03:25:00;102770;;;-0.1;100.0
48680;BME280;34475;51.658;5.634;2023-01-29T03:26:00;102770;;;-0.1;100.0
48680;BME280;34475;51.658;5.634;2023-01-29T03:27:00;102780;;;-0.0;100.0
48680;BME280;34475;51.658;5.634;2023-01-29T03:28:00;102780;;;-0.0;100.0
48680;BME280;34475;51.658;5.634;2023-01-29T03:29:00;102770;;;0.0;100.0
48680;BME280;34475;51.658;5.634;2023-01-29T03:30:00;102770;;;0.0;100.0
48680;BME280;34475;51.658;5.634;2023-01-29T03:31:01;102770;;;-0.0;100.0
48680;BME280;34475;51.658;5.634;2023-01-29T03:32:00;102770;;;-0.0;100.0
48680;BME280;34475;51.658;5.634;2023-01-29T03:33:01;102780;;;0.1;100.0
48680;BME280;34475;51.658;5.634;2023-01-29T03:34:02;102780;;;0.1;100.0
48680;BME280;34475;51.658;5.634;2023-01-29T03:35:01;102780;;;-0.1;100.0
48680;BME280;34475;51.658;5.634;2023-01-29T03:36:05;102780;;;-0.1;100.0
48680;BME280;34475;51.658;5.634;2023-01-29T03:38:00;102780;;;-0.1;100.0
48680;BME280;34475;51.658;5.634;2023-01-29T03:39:00;102770;;;0.0;100.0
48680;BME280;34475;51.658;5.634;2023-01-29T03:40:01;102770;;;0.0;100.0
48680;BME280;34475;51.658;5.634;2023-01-29T03:42:11;102770;;;0.1;100.0
48680;BME280;34475;51.658;5.634;2023-01-29T03:43:19;102760;;;0.1;100.0
48680;BME280;34475;51.658;5.634;2023-01-29T03:44:04;102760;;;0.1;100.0
48680;BME280;34475;51.658;5.634;2023-01-29T03:46:09;102760;;;0.1;100.0
48680;BME280;34475;51.658;5.634;2023-01-29T03:47:05;102750;;;0.0;100.0
48680;BME280;34475;51.658;5.634;2023-01-29T03:48:10;102750;;;0.0;100.0
48680;BME280;34475;51.658;5.634;2023-01-29T03:49:01;102760;;;0.1;100.0
48680;BME280;34475;51.658;5.634;2023-01-29T03:52:09;102760;;;0.0;100.0
48680;BME280;34475;51.658;5.634;2023-01-29T03:53:05;102760;;;0.1;100.0
48680;BME280;34475;51.658;5.634;2023-01-29T03:54:03;102760;;;0.1;100.0
48680;BME280;34475;51.658;5.634;2023-01-29T03:56:01;102760;;;0.0;100.0
48680;BME280;34475;51.658;5.634;2023-01-29T03:57:02;102750;;;0.2;100.0
48680;BME280;34475;51.658;5.634;2023-01-29T03:59:01;102750;;;0.2;100.0
48680;BME280;34475;51.658;5.634;2023-01-29T04:00:07;102750;;;0.2;100.0
48680;BME280;34475;51.658;5.634;2023-01-29T04:01:01;102750;;;0.2;100.0
48680;BME280;34475;51.658;5.634;2023-01-29T04:02:01;102750;;;0.2;100.0
48680;BME280;34475;51.658;5.634;2023-01-29T04:03:05;102740;;;0.2;100.0
48680;BME280;34475;51.658;5.634;2023-01-29T04:05:01;102730;;;0.2;100.0
48680;BME280;34475;51.658;5.634;2023-01-29T04:06:03;102730;;;0.2;100.0
48680;BME280;34475;51.658;5.634;2023-01-29T04:07:02;102740;;;0.2;100.0
48680;BME280;34475;51.658;5.634;2023-01-29T04:08:01;102740;;;0.2;100.0
48680;BME280;34475;51.658;5.634;2023-01-29T04:09:06;102730;;;0.1;100.0
48680;BME280;34475;51.658;5.634;2023-01-29T04:11:01;102730;;;0.1;100.0
48680;BME280;34475;51.658;5.634;2023-01-29T04:12:01;102730;;;0.1;100.0
48680;BME280;34475;51.658;5.634;2023-01-29T04:13:02;102730;;;0.2;100.0
48680;BME280;34475;51.658;5.634;2023-01-29T04:14:00;102730;;;0.2;100.0
48680;BME280;34475;51.658;5.634;2023-01-29T04:15:00;102730;;;0.2;100.0
48680;BME280;34475;51.658;5.634;2023-01-29T04:16:00;102730;;;0.2;100.0
48680;BME280;34475;51.658;5.634;2023-01-29T04:17:01;102720;;;0.2;100.0
48680;BME280;34475;51.658;5.634;2023-01-29T04:18:00;102720;;;0.2;100.0
48680;BME280;34475;51.658;5.634;2023-01-29T04:19:00;102730;;;0.1;100.0
48680;BME280;34475;51.658;5.634;2023-01-29T04:20:00;102730;;;0.1;100.0
48680;BME280;34475;51.658;5.634;2023-01-29T04:21:00;102730;;;0.1;100.0
48680;BME280;34475;51.658;5.634;2023-01-29T04:23:00;102730;;;0.1;100.0
48680;BME280;34475;51.658;5.634;2023-01-29T04:24:00;102730;;;0.1;100.0
48680;BME280;34475;51.658;5.634;2023-01-29T04:25:01;102730;;;0.2;100.0
48680;BME280;34475;51.658;5.634;2023-01-29T04:26:08;102730;;;0.2;100.0
48680;BME280;34475;51.658;5.634;2023-01-29T04:27:05;102720;;;0.1;100.0
48680;BME280;34475;51.658;5.634;2023-01-29T04:28:04;102720;;;0.1;100.0
48680;BME280;34475;51.658;5.634;2023-01-29T04:30:03;102720;;;0.1;100.0
48680;BME280;34475;51.658;5.634;2023-01-29T04:31:02;102720;;;0.2;100.0
48680;BME280;34475;51.658;5.634;2023-01-29T04:33:02;102720;;;0.2;100.0
48680;BME280;34475;51.658;5.634;2023-01-29T04:34:11;102720;;;0.2;100.0
48680;BME280;34475;51.658;5.634;2023-01-29T04:35:04;102720;;;0.2;100.0
48680;BME280;34475;51.658;5.634;2023-01-29T04:37:03;102720;;;0.2;100.0
48680;BME280;34475;51.658;5.634;2023-01-29T04:38:03;102720;;;0.2;100.0
48680;BME280;34475;51.658;5.634;2023-01-29T04:39:12;102710;;;0.1;100.0
48680;BME280;34475;51.658;5.634;2023-01-29T04:40:03;102710;;;0.1;100.0
48680;BME280;34475;51.658;5.634;2023-01-29T04:44:09;102690;;;0.1;100.0
48680;BME280;34475;51.658;5.634;2023-01-29T04:45:07;102690;;;0.1;100.0
48680;BME280;34475;51.658;5.634;2023-01-29T04:49:05;102690;;;0.1;100.0
48680;BME280;34475;51.658;5.634;2023-01-29T04:50:04;102690;;;0.1;100.0
48680;BME280;34475;51.658;5.634;2023-01-29T04:51:07;102680;;;0.1;100.0
48680;BME280;34475;51.658;5.634;2023-01-29T04:52:04;102680;;;0.1;100.0
48680;BME280;34475;51.658;5.634;2023-01-29T04:53:06;102680;;;0.1;100.0
48680;BME280;34475;51.658;5.634;2023-01-29T04:54:01;102680;;;0.1;100.0
48680;BME280;34475;51.658;5.634;2023-01-29T04:55:05;102680;;;0.2;100.0
48680;BME280;34475;51.658;5.634;2023-01-29T04:56:04;102680;;;0.2;100.0
48680;BME280;34475;51.658;5.634;2023-01-29T04:59:02;102670;;;0.1;100.0
48680;BME280;34475;51.658;5.634;2023-01-29T05:00:05;102670;;;0.1;100.0
48680;BME280;34475;51.658;5.634;2023-01-29T05:01:00;102670;;;0.2;100.0
48680;BME280;34475;51.658;5.634;2023-01-29T05:02:00;102670;;;0.2;100.0
48680;BME280;34475;51.658;5.634;2023-01-29T05:03:00;102670;;;0.1;100.0
48680;BME280;34475;51.658;5.634;2023-01-29T05:04:01;102670;;;0.1;100.0
48680;BME280;34475;51.658;5.634;2023-01-29T05:05:00;102660;;;0.2;100.0
48680;BME280;34475;51.658;5.634;2023-01-29T05:06:00;102660;;;0.2;100.0
48680;BME280;34475;51.658;5.634;2023-01-29T05:07:01;102680;;;0.2;100.0
48680;BME280;34475;51.658;5.634;2023-01-29T05:08:00;102680;;;0.2;100.0
48680;BME280;34475;51.658;5.634;2023-01-29T05:09:00;102680;;;0.1;100.0
48680;BME280;34475;51.658;5.634;2023-01-29T05:10:00;102680;;;0.1;100.0
48680;BME280;34475;51.658;5.634;2023-01-29T05:11:00;102680;;;0.2;100.0
48680;BME280;34475;51.658;5.634;2023-01-29T05:12:00;102680;;;0.2;100.0
48680;BME280;34475;51.658;5.634;2023-01-29T05:13:00;102680;;;0.2;100.0
48680;BME280;34475;51.658;5.634;2023-01-29T05:14:01;102680;;;0.2;100.0
48680;BME280;34475;51.658;5.634;2023-01-29T05:15:01;102670;;;0.3;100.0
48680;BME280;34475;51.658;5.634;2023-01-29T05:16:03;102670;;;0.3;100.0
48680;BME280;34475;51.658;5.634;2023-01-29T05:17:01;102670;;;0.2;100.0
48680;BME280;34475;51.658;5.634;2023-01-29T05:18:00;102670;;;0.2;100.0
48680;BME280;34475;51.658;5.634;2023-01-29T05:19:00;102670;;;0.3;100.0
48680;BME280;34475;51.658;5.634;2023-01-29T05:20:00;102670;;;0.3;100.0
48680;BME280;34475;51.658;5.634;2023-01-29T05:21:01;102660;;;0.2;100.0
48680;BME280;34475;51.658;5.634;2023-01-29T05:22:00;102660;;;0.2;100.0
48680;BME280;34475;51.658;5.634;2023-01-29T05:23:00;102650;;;0.3;100.0
48680;BME280;34475;51.658;5.634;2023-01-29T05:24:08;102650;;;0.3;100.0
48680;BME280;34475;51.658;5.634;2023-01-29T05:25:00;102650;;;0.2;100.0
48680;BME280;34475;51.658;5.634;2023-01-29T05:26:00;102650;;;0.2;100.0
48680;BME280;34475;51.658;5.634;2023-01-29T05:27:00;102650;;;0.3;100.0
48680;BME280;34475;51.658;5.634;2023-01-29T05:28:00;102650;;;0.3;100.0
48680;BME280;34475;51.658;5.634;2023-01-29T05:29:00;102660;;;0.2;100.0
48680;BME280;34475;51.658;5.634;2023-01-29T05:30:00;102660;;;0.2;100.0
48680;BME280;34475;51.658;5.634;2023-01-29T05:31:00;102650;;;0.3;100.0
48680;BME280;34475;51.658;5.634;2023-01-29T05:32:00;102650;;;0.3;100.0
48680;BME280;34475;51.658;5.634;2023-01-29T05:33:00;102650;;;0.3;100.0
48680;BME280;34475;51.658;5.634;2023-01-29T05:34:00;102650;;;0.3;100.0
48680;BME280;34475;51.658;5.634;2023-01-29T05:35:00;102640;;;0.4;100.0
48680;BME280;34475;51.658;5.634;2023-01-29T05:36:00;102640;;;0.4;100.0
48680;BME280;34475;51.658;5.634;2023-01-29T05:37:00;102640;;;0.4;100.0
48680;BME280;34475;51.658;5.634;2023-01-29T05:38:00;102640;;;0.4;100.0
48680;BME280;34475;51.658;5.634;2023-01-29T05:39:00;102640;;;0.4;100.0
48680;BME280;34475;51.658;5.634;2023-01-29T05:40:00;102640;;;0.4;100.0
48680;BME280;34475;51.658;5.634;2023-01-29T05:41:00;102650;;;0.4;100.0
48680;BME280;34475;51.658;5.634;2023-01-29T05:42:00;102650;;;0.4;100.0
48680;BME280;34475;51.658;5.634;2023-01-29T05:43:00;102660;;;0.5;100.0
48680;BME280;34475;51.658;5.634;2023-01-29T05:44:00;102660;;;0.5;100.0
48680;BME280;34475;51.658;5.634;2023-01-29T05:45:00;102650;;;0.4;100.0
48680;BME280;34475;51.658;5.634;2023-01-29T05:46:00;102650;;;0.4;100.0
48680;BME280;34475;51.658;5.634;2023-01-29T05:47:00;102650;;;0.4;100.0
48680;BME280;34475;51.658;5.634;2023-01-29T05:48:00;102650;;;0.4;100.0
48680;BME280;34475;51.658;5.634;2023-01-29T05:49:00;102650;;;0.4;100.0
48680;BME280;34475;51.658;5.634;2023-01-29T05:50:00;102650;;;0.4;100.0
48680;BME280;34475;51.658;5.634;2023-01-29T05:51:00;102660;;;0.5;100.0
48680;BME280;34475;51.658;5.634;2023-01-29T05:52:00;102660;;;0.5;100.0
48680;BME280;34475;51.658;5.634;2023-01-29T05:53:00;102660;;;0.5;100.0
48680;BME280;34475;51.658;5.634;2023-01-29T05:54:00;102660;;;0.5;100.0
48680;BME280;34475;51.658;5.634;2023-01-29T05:55:00;102660;;;0.5;100.0
48680;BME280;34475;51.658;5.634;2023-01-29T05:56:00;102660;;;0.5;100.0
48680;BME280;34475;51.658;5.634;2023-01-29T05:57:00;102670;;;0.5;100.0
48680;BME280;34475;51.658;5.634;2023-01-29T05:58:00;102670;;;0.5;100.0
48680;BME280;34475;51.658;5.634;2023-01-29T05:59:00;102670;;;0.5;100.0
48680;BME280;34475;51.658;5.634;2023-01-29T06:00:00;102670;;;0.5;100.0
48680;BME280;34475;51.658;5.634;2023-01-29T06:01:16;102680;;;0.5;100.0
48680;BME280;34475;51.658;5.634;2023-01-29T06:02:00;102680;;;0.5;100.0
48680;BME280;34475;51.658;5.634;2023-01-29T06:03:00;102680;;;0.5;100.0
48680;BME280;34475;51.658;5.634;2023-01-29T06:04:00;102680;;;0.5;100.0
48680;BME280;34475;51.658;5.634;2023-01-29T06:05:00;102680;;;0.5;100.0
48680;BME280;34475;51.658;5.634;2023-01-29T06:06:00;102680;;;0.5;100.0
48680;BME280;34475;51.658;5.634;2023-01-29T06:07:00;102680;;;0.5;100.0
48680;BME280;34475;51.658;5.634;2023-01-29T06:08:00;102680;;;0.5;100.0
48680;BME280;34475;51.658;5.634;2023-01-29T06:09:00;102680;;;0.5;100.0